createdAt,value
2023-04-23T04:01:50.421Z,80.88
2023-04-23T04:05:54.405Z,80.93
2023-04-23T04:09:56.987Z,81.27
2023-04-23T04:14:01.522Z,81.35
2023-04-23T04:18:05.433Z,80.99
2023-04-23T04:22:07.973Z,80.62
2023-04-23T04:26:10.834Z,81.33
2023-04-23T04:30:14.004Z,82.52
2023-04-23T04:34:17.882Z,82.34
2023-04-23T04:38:21.799Z,81.96
2023-04-23T04:42:25.364Z,82.07
2023-04-23T04:46:29.102Z,82.23
2023-04-23T04:50:33.138Z,81.40
2023-04-23T04:54:35.649Z,81.21
2023-04-23T04:58:38.184Z,81.20
2023-04-23T05:02:40.770Z,81.71
2023-04-23T05:06:44.742Z,82.29
2023-04-23T05:10:47.274Z,82.05
2023-04-23T05:14:50.050Z,81.61
2023-04-23T05:18:53.438Z,81.80
2023-04-23T05:22:59.356Z,81.89
2023-04-23T05:27:02.487Z,82.07
2023-04-23T05:31:05.186Z,81.80
2023-04-23T05:35:08.330Z,81.83
2023-04-23T05:39:12.145Z,81.76
2023-04-23T05:43:14.779Z,81.52
2023-04-23T05:47:18.338Z,81.66
2023-04-23T05:51:20.864Z,81.90
2023-04-23T05:55:25.216Z,81.41
2023-04-23T05:59:27.743Z,81.59
2023-04-23T06:03:30.516Z,81.46
2023-04-23T06:07:33.204Z,81.81
2023-04-23T06:11:37.052Z,81.81
2023-04-23T06:15:39.659Z,81.56
2023-04-23T06:19:42.204Z,81.20
2023-04-23T06:23:44.725Z,80.81
2023-04-23T06:27:48.650Z,80.21
2023-04-23T06:31:56.433Z,78.70
2023-04-23T06:35:58.964Z,79.02
2023-04-23T06:40:01.527Z,78.82
2023-04-23T06:44:06.062Z,78.21
2023-04-23T06:48:11.915Z,77.88
2023-04-23T06:52:14.498Z,76.30
2023-04-23T06:56:17.026Z,73.84
2023-04-23T07:00:21.445Z,75.12
2023-04-23T07:04:24.239Z,73.89
2023-04-23T07:08:26.846Z,72.36
2023-04-23T07:12:29.382Z,72.00
2023-04-23T07:16:34.000Z,72.99
2023-04-23T07:20:37.082Z,73.35
2023-04-23T07:24:39.763Z,71.84
2023-04-23T07:28:42.351Z,70.25
2023-04-23T07:32:46.329Z,68.33
2023-04-23T07:36:48.849Z,63.76
2023-04-23T07:40:51.385Z,66.63
2023-04-23T07:44:53.876Z,68.45
2023-04-23T07:48:57.749Z,69.00
2023-04-23T07:53:00.407Z,69.92
2023-04-23T07:57:02.953Z,68.27
2023-04-23T08:01:05.572Z,67.52
2023-04-23T08:05:10.621Z,69.48
2023-04-23T08:09:13.278Z,67.79
2023-04-23T08:13:15.793Z,67.11
2023-04-23T08:17:18.303Z,64.94
2023-04-23T08:21:22.428Z,65.20
2023-04-23T08:25:25.032Z,64.05
2023-04-23T08:29:27.524Z,62.92
2023-04-23T08:33:30.077Z,60.49
2023-04-23T08:37:33.919Z,57.74
2023-04-23T08:41:40.825Z,59.02
2023-04-23T08:45:48.162Z,59.93
2023-04-23T08:49:54.925Z,59.76
2023-04-23T08:54:00.295Z,60.14
2023-04-23T08:58:06.200Z,61.98
2023-04-23T09:02:10.468Z,58.91
2023-04-23T09:06:13.310Z,59.06
2023-04-23T09:10:18.656Z,59.21
2023-04-23T09:14:23.044Z,59.19
2023-04-23T09:18:25.870Z,56.75
2023-04-23T09:22:45.122Z,56.34
2023-04-23T09:26:52.074Z,55.22
2023-04-23T09:30:54.696Z,53.92
2023-04-23T09:34:57.864Z,52.73
2023-04-23T09:39:00.362Z,53.21
2023-04-23T09:43:05.861Z,52.63
2023-04-23T09:47:10.456Z,52.75
2023-04-23T09:51:14.757Z,53.35
2023-04-23T09:55:28.767Z,53.35
2023-04-23T09:59:46.826Z,51.33
2023-04-23T10:03:54.446Z,51.64
2023-04-23T10:07:58.334Z,49.56
2023-04-23T10:12:02.872Z,51.46
2023-04-23T10:16:20.447Z,51.32
2023-04-23T10:20:24.789Z,50.75
2023-04-23T10:24:30.455Z,48.61
2023-04-23T10:28:34.683Z,46.22
2023-04-23T10:32:39.350Z,45.49
2023-04-23T10:36:41.895Z,46.02
2023-04-23T10:40:47.698Z,43.97
2023-04-23T10:44:59.356Z,44.73
2023-04-23T10:49:14.352Z,44.86
2023-04-23T10:53:21.019Z,45.61
2023-04-23T10:57:23.694Z,46.24
2023-04-23T11:01:26.877Z,46.41
2023-04-23T11:05:30.819Z,45.28
2023-04-23T11:09:39.188Z,45.21
2023-04-23T11:13:52.494Z,44.45
2023-04-23T11:18:02.732Z,44.56
2023-04-23T11:22:08.331Z,44.99
2023-04-23T11:26:10.998Z,45.50
2023-04-23T11:30:16.316Z,46.10
2023-04-23T11:34:19.387Z,44.34
2023-04-23T11:38:23.281Z,44.89
2023-04-23T11:42:25.893Z,44.06
2023-04-23T11:46:28.495Z,45.01
2023-04-23T11:50:33.703Z,44.19
2023-04-23T11:54:37.811Z,44.96
2023-04-23T11:58:40.314Z,45.06
2023-04-23T12:02:51.933Z,44.25
2023-04-23T12:06:55.681Z,43.64
2023-04-23T12:11:03.181Z,44.43
2023-04-23T12:15:07.090Z,43.20
2023-04-23T12:19:10.303Z,42.24
2023-04-23T12:23:13.134Z,42.49
2023-04-23T12:27:20.238Z,41.98
2023-04-23T12:31:24.244Z,40.29
2023-04-23T12:35:39.158Z,42.29
2023-04-23T12:39:41.974Z,43.83
2023-04-23T12:43:48.618Z,42.57
2023-04-23T12:47:51.266Z,41.33
2023-04-23T12:51:57.212Z,40.94
2023-04-23T12:55:59.772Z,42.29
2023-04-23T13:00:04.934Z,43.05
2023-04-23T13:04:07.808Z,43.42
2023-04-23T13:08:10.358Z,42.90
2023-04-23T13:12:12.922Z,43.05
2023-04-23T13:16:16.820Z,42.59
2023-04-23T13:20:19.374Z,41.46
2023-04-23T13:24:21.971Z,41.86
2023-04-23T13:28:25.165Z,41.62
2023-04-23T13:32:32.139Z,42.93
2023-04-23T13:36:35.122Z,42.04
2023-04-23T13:40:37.981Z,41.55
2023-04-23T13:44:40.518Z,42.04
2023-04-23T13:48:44.370Z,42.14
2023-04-23T13:52:48.006Z,42.01
2023-04-23T13:56:50.560Z,41.95
2023-04-23T14:00:53.352Z,42.64
2023-04-23T14:04:58.280Z,43.11
2023-04-23T14:09:00.810Z,43.96
2023-04-23T14:13:04.005Z,44.02
2023-04-23T14:17:06.535Z,43.28
2023-04-23T14:21:10.417Z,45.33
2023-04-23T14:25:24.377Z,46.59
2023-04-23T14:29:32.651Z,47.45
2023-04-23T14:33:35.136Z,47.99
2023-04-23T14:37:39.036Z,48.92
2023-04-23T14:41:42.081Z,49.18
2023-04-23T14:45:44.886Z,48.82
2023-04-23T14:49:47.486Z,47.42
2023-04-23T14:53:53.977Z,47.05
2023-04-23T14:57:57.857Z,45.59
2023-04-23T15:02:01.761Z,46.39
2023-04-23T15:06:05.043Z,44.79
2023-04-23T15:10:11.651Z,45.40
2023-04-23T15:14:23.965Z,44.36
2023-04-23T15:18:26.574Z,42.90
2023-04-23T15:22:29.087Z,41.78
2023-04-23T15:26:33.657Z,40.13
2023-04-23T15:30:36.205Z,39.87
2023-04-23T15:34:38.720Z,39.78
2023-04-23T15:38:41.280Z,39.74
2023-04-23T15:42:45.336Z,39.43
2023-04-23T15:46:47.868Z,38.25
2023-04-23T15:50:50.393Z,37.28
2023-04-23T15:54:52.889Z,36.42
2023-04-23T15:58:57.010Z,36.70
2023-04-23T16:03:01.036Z,38.34
2023-04-23T16:07:03.948Z,40.50
2023-04-23T16:11:08.749Z,41.74
2023-04-23T16:15:13.106Z,41.70
2023-04-23T16:19:15.680Z,41.83
2023-04-23T16:23:18.199Z,42.21
2023-04-23T16:27:21.018Z,42.89
2023-04-23T16:31:24.964Z,43.25
2023-04-23T16:35:27.922Z,43.29
2023-04-23T16:39:30.496Z,43.39
2023-04-23T16:43:33.134Z,43.22
2023-04-23T16:47:38.161Z,45.92
2023-04-23T16:51:40.700Z,48.52
2023-04-23T16:55:43.267Z,49.14
2023-04-23T16:59:45.869Z,50.45
2023-04-23T17:03:50.008Z,50.40
2023-04-23T17:07:53.246Z,49.81
2023-04-23T17:11:56.627Z,49.34
2023-04-23T17:15:59.588Z,50.46
2023-04-23T17:20:03.908Z,52.12
2023-04-23T17:24:06.841Z,52.73
2023-04-23T17:28:09.408Z,52.81
2023-04-23T17:32:12.076Z,53.68
2023-04-23T17:36:16.806Z,57.59
2023-04-23T17:40:19.558Z,56.99
2023-04-23T17:44:22.428Z,57.70
2023-04-23T17:48:25.278Z,55.50
2023-04-23T17:52:29.161Z,56.56
2023-04-23T17:56:31.872Z,56.12
2023-04-23T18:00:35.480Z,57.31
2023-04-23T18:04:38.073Z,57.59
2023-04-23T18:08:42.766Z,56.48
2023-04-23T18:12:45.584Z,58.70
2023-04-23T18:16:48.208Z,57.88
2023-04-23T18:20:51.786Z,57.82
2023-04-23T18:24:55.914Z,57.47
2023-04-23T18:28:58.441Z,57.42
2023-04-23T18:33:08.490Z,58.25
2023-04-23T18:37:27.074Z,58.93
2023-04-23T18:41:31.151Z,59.61
2023-04-23T18:45:33.681Z,60.55
2023-04-23T18:49:44.628Z,61.28
2023-04-23T18:53:47.203Z,61.79
2023-04-23T18:57:51.052Z,62.32
2023-04-23T19:01:53.612Z,62.21
2023-04-23T19:05:56.263Z,62.94
2023-04-23T19:09:58.830Z,63.34
2023-04-23T19:14:02.703Z,63.57
2023-04-23T19:18:06.114Z,63.88
2023-04-23T19:22:08.645Z,64.08
2023-04-23T19:26:11.637Z,63.71
2023-04-23T19:30:15.776Z,63.47
2023-04-23T19:34:19.128Z,62.68
2023-04-23T19:38:21.686Z,63.20
2023-04-23T19:42:24.206Z,62.13
2023-04-23T19:46:28.166Z,61.72
2023-04-23T19:50:31.814Z,61.49
2023-04-23T19:54:34.382Z,61.14
2023-04-23T19:58:36.907Z,61.07
2023-04-23T20:02:41.194Z,60.54
2023-04-23T20:06:43.834Z,60.30
2023-04-23T20:10:46.396Z,61.06
2023-04-23T20:14:48.876Z,61.10
2023-04-23T20:18:52.735Z,62.35
2023-04-23T20:22:55.272Z,61.48
2023-04-23T20:26:58.481Z,61.06
2023-04-23T20:31:00.987Z,61.74
2023-04-23T20:35:05.329Z,59.76
2023-04-23T20:39:08.143Z,59.79
2023-04-23T20:43:10.838Z,61.34
2023-04-23T20:47:13.585Z,61.75
2023-04-23T20:51:17.449Z,61.49
2023-04-23T20:55:20.205Z,61.11
2023-04-23T20:59:22.931Z,61.28
